Terminal Aerodrome Forecast
Issued by NWS

Home | Current Version | Previous Version | Text Only | Print | Product List | Glossary On
Versions: 1 2 3 4 5 6 7 8 9 10 11 12
053
FTUS42 KMLB 262339
TAFSUA
TAF
KSUA 262339Z 2700/2724 17007KT P6SM FEW030 OVC250
     FM270200 17003KT P6SM BKN250
     FM271400 21004KT P6SM SCT025 BKN250
     FM271600 11010KT P6SM VCTS BKN035CB BKN060
      TEMPO 2717/2720 3SM TSRA BKN025CB=

USA.gov is the U.S. government's official web portal to all federal, state and local government web resources and services.